createdAt,value
2019-01-23T00:00:34.922Z,25.67
2019-01-23T00:03:03.471Z,26.67
2019-01-23T00:05:31.933Z,25.97
2019-01-23T00:08:00.486Z,26.10
2019-01-23T00:10:28.929Z,24.63
2019-01-23T00:12:57.410Z,24.50
2019-01-23T00:15:25.863Z,25.70
2019-01-23T00:17:54.390Z,24.93
2019-01-23T00:20:22.840Z,25.77
2019-01-23T00:22:51.321Z,25.77
2019-01-23T00:25:19.852Z,26.17
2019-01-23T00:27:48.335Z,25.53
2019-01-23T00:30:16.946Z,25.40
2019-01-23T00:32:45.418Z,25.60
2019-01-23T00:35:13.875Z,25.53
2019-01-23T00:37:42.354Z,26.27
2019-01-23T00:40:15.757Z,24.10
2019-01-23T00:42:44.473Z,23.93
2019-01-23T00:45:14.887Z,25.33
2019-01-23T00:47:43.340Z,24.97
2019-01-23T00:50:13.425Z,21.90
2019-01-23T00:52:41.927Z,23.47
2019-01-23T00:55:17.542Z,23.67
2019-01-23T00:57:46.111Z,24.33
2019-01-23T01:00:17.654Z,25.60
2019-01-23T01:02:46.202Z,23.07
2019-01-23T01:05:15.938Z,21.83
2019-01-23T01:07:44.563Z,21.30
2019-01-23T01:10:15.462Z,23.73
2019-01-23T01:12:44.185Z,25.87
2019-01-23T01:15:13.431Z,22.77
2019-01-23T01:17:42.210Z,24.37
2019-01-23T01:20:12.811Z,20.40
2019-01-23T01:22:41.257Z,25.03
2019-01-23T01:25:12.286Z,24.13
2019-01-23T01:27:40.741Z,24.97
2019-01-23T01:30:14.883Z,26.33
2019-01-23T01:32:43.402Z,25.63
2019-01-23T01:35:11.877Z,25.10
2019-01-23T01:37:40.323Z,24.70
2019-01-23T01:40:12.570Z,24.17
2019-01-23T01:42:41.228Z,25.23
2019-01-23T01:45:12.046Z,21.53
2019-01-23T01:47:40.500Z,20.87
2019-01-23T01:50:14.213Z,23.60
2019-01-23T01:52:42.672Z,23.80
2019-01-23T01:55:11.205Z,24.53
2019-01-23T01:57:39.674Z,23.23
2019-01-23T02:00:11.227Z,23.90
2019-01-23T02:02:39.686Z,24.07
2019-01-23T02:05:08.492Z,25.23
2019-01-23T02:07:36.926Z,25.83
2019-01-23T02:10:08.802Z,23.70
2019-01-23T02:12:37.242Z,22.87
2019-01-23T02:15:08.224Z,23.33
2019-01-23T02:17:36.675Z,24.70
2019-01-23T02:20:08.215Z,25.17
2019-01-23T02:22:36.680Z,25.13
2019-01-23T02:25:06.652Z,25.97
2019-01-23T02:27:35.097Z,24.87
2019-01-23T02:30:05.426Z,25.80
2019-01-23T02:32:33.871Z,27.63
2019-01-23T02:35:02.363Z,22.87
2019-01-23T02:37:30.896Z,24.30
2019-01-23T02:39:59.419Z,24.53
2019-01-23T02:42:27.857Z,27.03
2019-01-23T02:44:56.325Z,23.00
2019-01-23T02:47:24.792Z,25.10
2019-01-23T02:49:53.257Z,22.43
2019-01-23T02:52:21.715Z,27.70
2019-01-23T02:54:50.185Z,25.43
2019-01-23T02:57:18.637Z,25.80
2019-01-23T02:59:47.107Z,28.60
2019-01-23T03:02:15.565Z,27.00
2019-01-23T03:04:44.571Z,26.60
2019-01-23T03:07:13.036Z,26.70
2019-01-23T03:09:41.502Z,25.10
2019-01-23T03:12:09.958Z,24.40
2019-01-23T03:14:38.419Z,27.20
2019-01-23T03:17:06.897Z,27.70
2019-01-23T03:19:35.545Z,24.83
2019-01-23T03:22:04.168Z,24.03
2019-01-23T03:24:32.706Z,25.10
2019-01-23T03:27:01.151Z,26.57
2019-01-23T03:29:29.632Z,27.63
2019-01-23T03:31:58.095Z,24.70
2019-01-23T03:34:26.550Z,26.97
2019-01-23T03:36:54.987Z,26.43
2019-01-23T03:39:23.477Z,25.20
2019-01-23T03:41:51.948Z,25.60
2019-01-23T03:44:20.430Z,25.93
2019-01-23T03:46:48.871Z,15.77
2019-01-23T03:49:17.334Z,23.30
2019-01-23T03:51:45.780Z,25.53
2019-01-23T03:54:14.251Z,25.67
2019-01-23T03:56:42.695Z,24.30
2019-01-23T03:59:11.237Z,23.87
2019-01-23T04:01:39.689Z,25.83
2019-01-23T04:04:08.166Z,24.47
2019-01-23T04:06:36.615Z,26.47
2019-01-23T04:09:07.023Z,26.17
2019-01-23T04:11:35.567Z,24.07
2019-01-23T04:14:04.236Z,18.23
2019-01-23T04:16:32.700Z,25.10
2019-01-23T04:19:01.239Z,22.37
2019-01-23T04:21:29.750Z,20.60
2019-01-23T04:23:58.201Z,19.40
2019-01-23T04:26:26.663Z,22.17
2019-01-23T04:28:55.121Z,23.07
2019-01-23T04:31:23.570Z,23.43
2019-01-23T04:33:52.023Z,22.17
2019-01-23T04:36:20.552Z,26.10
2019-01-23T04:38:48.997Z,24.07
2019-01-23T04:41:17.466Z,23.70
2019-01-23T04:43:45.982Z,24.90
2019-01-23T04:46:14.446Z,26.37
2019-01-23T04:48:42.907Z,27.30
2019-01-23T04:51:15.877Z,25.67
2019-01-23T04:53:45.612Z,25.67
2019-01-23T04:56:14.123Z,24.87
2019-01-23T04:58:42.574Z,25.70
2019-01-23T05:01:11.051Z,24.20
2019-01-23T05:03:39.569Z,23.23
2019-01-23T05:06:08.086Z,23.50
2019-01-23T05:08:36.542Z,24.17
2019-01-23T05:11:05.023Z,23.57
2019-01-23T05:13:33.486Z,23.87
2019-01-23T05:16:02.029Z,24.07
2019-01-23T05:18:30.468Z,25.23
2019-01-23T05:20:58.929Z,22.87
2019-01-23T05:23:27.385Z,22.30
2019-01-23T05:25:55.889Z,15.40
2019-01-23T05:28:24.373Z,21.83
2019-01-23T05:30:52.914Z,24.93
2019-01-23T05:33:21.447Z,23.33
2019-01-23T05:35:50.850Z,24.07
2019-01-23T05:38:19.287Z,23.73
2019-01-23T05:40:47.740Z,24.70
2019-01-23T05:43:16.191Z,25.30
2019-01-23T05:45:44.668Z,24.03
2019-01-23T05:48:13.109Z,21.97
2019-01-23T05:50:41.556Z,24.17
2019-01-23T05:53:10.012Z,24.90
2019-01-23T05:55:38.550Z,24.33
2019-01-23T05:58:07.020Z,25.03
2019-01-23T06:00:35.555Z,24.80
2019-01-23T06:03:04.087Z,22.70
2019-01-23T06:05:32.617Z,24.57
2019-01-23T06:08:01.098Z,26.33
2019-01-23T06:10:29.579Z,25.97
2019-01-23T06:12:58.114Z,25.67
2019-01-23T06:15:26.586Z,24.70
2019-01-23T06:17:55.142Z,27.77
2019-01-23T06:20:23.612Z,25.37
2019-01-23T06:22:52.070Z,24.17
2019-01-23T06:25:20.604Z,25.37
2019-01-23T06:27:49.065Z,26.87
2019-01-23T06:30:25.131Z,27.70
2019-01-23T06:32:53.576Z,26.80
2019-01-23T06:35:22.113Z,26.37
2019-01-23T06:37:50.648Z,25.13
2019-01-23T06:40:19.669Z,28.00
2019-01-23T06:42:48.182Z,26.07
2019-01-23T06:45:18.201Z,26.80
2019-01-23T06:47:47.609Z,26.33
2019-01-23T06:50:18.448Z,27.67
2019-01-23T06:52:47.013Z,26.30
2019-01-23T06:55:15.465Z,31.17
2019-01-23T06:57:43.941Z,30.43
2019-01-23T07:00:17.645Z,28.87
2019-01-23T07:02:46.901Z,30.03
2019-01-23T07:05:15.890Z,25.07
2019-01-23T07:07:44.349Z,30.33
2019-01-23T07:10:21.043Z,29.93
2019-01-23T07:12:49.508Z,31.90
2019-01-23T07:15:18.292Z,31.73
2019-01-23T07:17:46.794Z,33.23
2019-01-23T07:20:20.341Z,34.40
2019-01-23T07:22:48.894Z,34.57
2019-01-23T07:25:17.691Z,33.37
2019-01-23T07:27:46.218Z,31.07
2019-01-23T07:30:23.991Z,34.43
2019-01-23T07:32:47.946Z,36.17
2019-01-23T07:35:16.401Z,34.00
2019-01-23T07:37:44.896Z,37.80
2019-01-23T07:40:13.543Z,34.70
2019-01-23T07:42:42.026Z,35.40
2019-01-23T07:45:18.674Z,37.53
2019-01-23T07:47:47.152Z,37.50
2019-01-23T07:50:15.838Z,38.00
2019-01-23T07:52:44.394Z,38.63
2019-01-23T07:55:17.639Z,37.43
2019-01-23T07:57:46.111Z,40.40
2019-01-23T08:00:16.959Z,36.83
2019-01-23T08:02:45.510Z,41.43
2019-01-23T08:05:19.544Z,39.73
2019-01-23T08:07:47.575Z,38.43
2019-01-23T08:10:17.888Z,40.03
2019-01-23T08:12:46.686Z,41.33
2019-01-23T08:15:18.239Z,38.40
2019-01-23T08:17:46.879Z,41.63
2019-01-23T08:20:18.040Z,42.10
2019-01-23T08:22:46.574Z,41.77
2019-01-23T08:25:15.364Z,44.50
2019-01-23T08:27:43.946Z,46.17
2019-01-23T08:30:15.594Z,42.93
2019-01-23T08:32:44.074Z,43.47
2019-01-23T08:35:12.877Z,43.47
2019-01-23T08:37:41.370Z,43.90
2019-01-23T08:40:12.571Z,42.50
2019-01-23T08:42:41.238Z,46.13
2019-01-23T08:45:11.291Z,44.70
2019-01-23T08:47:39.769Z,47.50
2019-01-23T08:50:11.299Z,47.43
2019-01-23T08:52:39.778Z,48.17
2019-01-23T08:55:08.369Z,50.63
2019-01-23T08:57:36.846Z,48.90
2019-01-23T09:00:11.255Z,50.93
2019-01-23T09:02:39.717Z,46.10
2019-01-23T09:05:09.686Z,49.90
2019-01-23T09:07:38.197Z,49.87
2019-01-23T09:10:18.419Z,49.70
2019-01-23T09:12:46.972Z,50.60
2019-01-23T09:15:16.764Z,52.13
2019-01-23T09:17:45.245Z,50.83
2019-01-23T09:20:18.388Z,52.43
2019-01-23T09:22:46.872Z,52.80
2019-01-23T09:25:17.261Z,50.67
2019-01-23T09:27:45.762Z,51.50
2019-01-23T09:30:20.064Z,51.57
2019-01-23T09:32:54.484Z,54.87
2019-01-23T09:35:28.979Z,53.90
2019-01-23T09:38:00.565Z,52.57
2019-01-23T09:40:32.087Z,52.63
2019-01-23T09:43:15.491Z,54.27
2019-01-23T09:45:58.883Z,53.70
2019-01-23T09:48:36.230Z,55.67
2019-01-23T09:51:25.643Z,57.97
2019-01-23T09:53:57.247Z,48.13
2019-01-23T09:56:25.808Z,46.43
2019-01-23T09:58:54.347Z,47.03
2019-01-23T10:01:22.937Z,51.30
2019-01-23T10:03:51.412Z,46.67
2019-01-23T10:06:19.871Z,54.40
2019-01-23T10:08:48.406Z,55.77
2019-01-23T10:11:16.867Z,53.23
2019-01-23T10:13:45.349Z,48.53
2019-01-23T10:16:13.827Z,52.20
2019-01-23T10:18:42.360Z,56.33
2019-01-23T10:21:10.881Z,56.20
2019-01-23T10:23:39.377Z,53.90
2019-01-23T10:26:07.817Z,52.20
2019-01-23T10:28:36.296Z,47.07
2019-01-23T10:31:06.828Z,48.67
2019-01-23T10:33:34.973Z,51.57
2019-01-23T10:36:03.527Z,52.93
2019-01-23T10:38:32.000Z,45.07
2019-01-23T10:41:01.122Z,42.73
2019-01-23T10:43:29.595Z,35.83
2019-01-23T10:45:58.077Z,50.07
2019-01-23T10:48:26.531Z,47.20
2019-01-23T10:50:54.994Z,47.70
2019-01-23T10:53:23.469Z,42.93
2019-01-23T10:55:51.956Z,43.73
2019-01-23T10:58:20.427Z,47.20
2019-01-23T11:00:48.912Z,42.13
2019-01-23T11:03:17.367Z,51.43
2019-01-23T11:05:45.848Z,41.10
2019-01-23T11:08:14.313Z,50.60
2019-01-23T11:10:42.854Z,48.27
2019-01-23T11:13:11.330Z,46.87
2019-01-23T11:15:39.865Z,42.97
2019-01-23T11:18:08.374Z,48.60
2019-01-23T11:20:36.857Z,48.33
2019-01-23T11:23:05.315Z,43.63
2019-01-23T11:25:33.859Z,48.10
2019-01-23T11:28:02.338Z,46.37
2019-01-23T11:30:30.883Z,49.30
2019-01-23T11:32:59.345Z,50.20
2019-01-23T11:35:27.826Z,49.97
2019-01-23T11:37:56.346Z,47.27
2019-01-23T11:40:28.019Z,46.20
2019-01-23T11:42:56.458Z,47.43
2019-01-23T11:45:24.948Z,40.33
2019-01-23T11:47:53.485Z,39.73
2019-01-23T11:50:23.229Z,42.20
2019-01-23T11:52:52.061Z,42.97
2019-01-23T11:55:20.546Z,45.40
2019-01-23T11:57:48.984Z,41.10
2019-01-23T12:00:22.629Z,42.90
2019-01-23T12:02:51.095Z,46.00
2019-01-23T12:05:21.369Z,43.97
2019-01-23T12:07:50.269Z,36.00
2019-01-23T12:10:23.465Z,38.20
2019-01-23T12:12:52.466Z,37.97
2019-01-23T12:15:22.784Z,38.67
2019-01-23T12:17:51.329Z,42.50
2019-01-23T12:20:20.341Z,44.17
2019-01-23T12:22:48.969Z,44.63
2019-01-23T12:25:17.449Z,43.77
2019-01-23T12:27:45.993Z,47.07
2019-01-23T12:30:20.126Z,47.43
2019-01-23T12:32:48.595Z,38.30
2019-01-23T12:35:17.244Z,29.93
2019-01-23T12:37:45.706Z,47.17
2019-01-23T12:40:15.935Z,44.70
2019-01-23T12:42:44.557Z,46.90
2019-01-23T12:45:21.887Z,46.57
2019-01-23T12:47:50.411Z,41.23
2019-01-23T12:50:21.824Z,43.53
2019-01-23T12:52:50.285Z,42.23
2019-01-23T12:55:18.745Z,31.93
2019-01-23T12:57:47.270Z,43.93
2019-01-23T13:00:21.426Z,37.70
2019-01-23T13:02:50.063Z,45.73
2019-01-23T13:05:20.128Z,44.43
2019-01-23T13:07:48.593Z,44.47
2019-01-23T13:10:19.559Z,45.93
2019-01-23T13:12:48.340Z,39.63
2019-01-23T13:15:21.417Z,40.43
2019-01-23T13:17:49.932Z,42.87
2019-01-23T13:20:20.592Z,41.83
2019-01-23T13:22:49.071Z,42.57
2019-01-23T13:25:25.514Z,42.30
2019-01-23T13:27:54.302Z,37.93
2019-01-23T13:30:24.977Z,38.87
2019-01-23T13:32:53.522Z,34.23
2019-01-23T13:35:26.973Z,40.70
2019-01-23T13:37:55.645Z,36.50
2019-01-23T13:40:27.052Z,37.47
2019-01-23T13:42:55.617Z,37.23
2019-01-23T13:45:24.152Z,36.07
2019-01-23T13:47:52.737Z,32.47
2019-01-23T13:50:21.178Z,35.80
2019-01-23T13:52:49.739Z,30.93
2019-01-23T13:55:22.837Z,33.73
2019-01-23T13:57:51.305Z,33.30
2019-01-23T14:00:29.008Z,32.83
2019-01-23T14:02:57.564Z,28.17
2019-01-23T14:05:26.078Z,36.07
2019-01-23T14:07:54.571Z,31.33
2019-01-23T14:10:23.020Z,34.87
2019-01-23T14:12:51.552Z,33.60
2019-01-23T14:15:34.638Z,29.37
2019-01-23T14:18:03.226Z,32.90
2019-01-23T14:20:31.678Z,25.77
2019-01-23T14:23:00.142Z,31.00
2019-01-23T14:25:28.615Z,31.30
2019-01-23T14:27:57.065Z,31.37
2019-01-23T14:30:30.498Z,30.73
2019-01-23T14:32:58.973Z,30.87
2019-01-23T14:35:27.968Z,32.50
2019-01-23T14:38:00.590Z,23.77
2019-01-23T14:40:26.770Z,30.73
2019-01-23T14:42:55.239Z,27.17
2019-01-23T14:45:23.751Z,26.63
2019-01-23T14:47:52.290Z,26.47
2019-01-23T14:50:21.590Z,21.40
2019-01-23T14:52:50.131Z,25.90
2019-01-23T14:55:18.665Z,23.23
2019-01-23T14:57:47.333Z,17.70
2019-01-23T15:00:24.784Z,21.27
2019-01-23T15:02:53.332Z,22.70
2019-01-23T15:05:21.835Z,24.00
2019-01-23T15:07:50.331Z,18.07
2019-01-23T15:10:27.167Z,21.77
2019-01-23T15:12:55.627Z,18.53
2019-01-23T15:15:24.170Z,21.87
2019-01-23T15:17:53.199Z,22.77
2019-01-23T15:20:24.698Z,18.87
2019-01-23T15:22:53.182Z,20.90
2019-01-23T15:25:21.643Z,22.20
2019-01-23T15:27:50.135Z,21.83
2019-01-23T15:30:20.836Z,20.50
2019-01-23T15:32:49.476Z,20.50
2019-01-23T15:35:19.295Z,20.53
2019-01-23T15:37:47.862Z,21.27
2019-01-23T15:40:30.766Z,21.47
2019-01-23T15:42:59.230Z,20.40
2019-01-23T15:45:27.674Z,18.47
2019-01-23T15:47:56.439Z,18.43
2019-01-23T15:50:26.535Z,19.60
2019-01-23T15:52:55.242Z,18.03
2019-01-23T15:55:25.651Z,18.60
2019-01-23T15:57:54.290Z,17.47
2019-01-23T16:00:32.678Z,10.13
2019-01-23T16:03:01.143Z,17.43
2019-01-23T16:05:29.667Z,19.40
2019-01-23T16:07:58.794Z,17.63
2019-01-23T16:10:28.817Z,17.37
2019-01-23T16:12:57.340Z,17.53
2019-01-23T16:15:27.511Z,17.93
2019-01-23T16:17:57.452Z,16.77
2019-01-23T16:20:26.409Z,16.17
2019-01-23T16:22:54.947Z,13.67
2019-01-23T16:25:23.412Z,19.43
2019-01-23T16:27:51.868Z,16.30
2019-01-23T16:30:34.218Z,17.20
2019-01-23T16:33:02.802Z,18.83
2019-01-23T16:35:38.327Z,15.17
2019-01-23T16:38:01.564Z,17.37
2019-01-23T16:40:29.999Z,17.90
2019-01-23T16:42:58.539Z,16.67
2019-01-23T16:45:27.203Z,17.27
2019-01-23T16:47:55.709Z,17.27
2019-01-23T16:50:26.642Z,16.63
2019-01-23T16:52:55.167Z,17.03
2019-01-23T16:55:23.923Z,17.93
2019-01-23T16:57:53.249Z,17.63
2019-01-23T17:00:24.186Z,16.57
2019-01-23T17:02:53.339Z,16.40
2019-01-23T17:05:30.056Z,16.27
2019-01-23T17:08:00.102Z,14.63
2019-01-23T17:10:29.222Z,11.50
2019-01-23T17:12:58.039Z,14.30
2019-01-23T17:15:26.800Z,15.63
2019-01-23T17:17:55.268Z,15.20
2019-01-23T17:20:30.156Z,11.77
2019-01-23T17:22:58.639Z,15.30
2019-01-23T17:25:27.175Z,16.57
2019-01-23T17:27:55.630Z,15.43
2019-01-23T17:30:24.529Z,16.37
2019-01-23T17:32:53.120Z,16.07
2019-01-23T17:35:22.018Z,16.67
2019-01-23T17:37:50.505Z,17.00
2019-01-23T17:40:21.041Z,16.53
2019-01-23T17:42:49.500Z,11.13
2019-01-23T17:45:26.556Z,16.70
2019-01-23T17:47:55.006Z,16.23
2019-01-23T17:50:24.540Z,15.03
2019-01-23T17:52:53.200Z,17.10
2019-01-23T17:55:24.751Z,15.63
2019-01-23T17:57:53.334Z,15.63
2019-01-23T18:00:25.839Z,16.90
2019-01-23T18:02:54.677Z,14.73
2019-01-23T18:05:23.493Z,16.47
2019-01-23T18:07:51.948Z,17.03
2019-01-23T18:10:20.441Z,17.70
2019-01-23T18:12:49.055Z,16.50
2019-01-23T18:15:20.132Z,16.13
2019-01-23T18:17:48.595Z,15.27
2019-01-23T18:20:19.306Z,17.00
2019-01-23T18:22:47.754Z,15.40
2019-01-23T18:25:17.171Z,16.33
2019-01-23T18:27:46.061Z,16.07
2019-01-23T18:30:29.208Z,16.83
2019-01-23T18:33:00.128Z,18.87
2019-01-23T18:35:33.848Z,16.20
2019-01-23T18:38:11.080Z,17.50
2019-01-23T18:41:07.777Z,16.77
2019-01-23T18:43:47.864Z,16.10
2019-01-23T18:46:45.072Z,17.47
2019-01-23T18:49:22.555Z,16.70
2019-01-23T18:52:12.529Z,16.57
2019-01-23T18:54:41.825Z,18.57
2019-01-23T18:57:22.704Z,14.73
2019-01-23T18:59:51.267Z,14.90
2019-01-23T19:02:19.758Z,14.80
2019-01-23T19:04:48.214Z,16.70
2019-01-23T19:07:16.687Z,17.23
2019-01-23T19:09:45.128Z,16.87
2019-01-23T19:12:13.637Z,12.93
2019-01-23T19:14:42.078Z,16.53
2019-01-23T19:17:10.550Z,16.47
2019-01-23T19:19:38.990Z,16.50
2019-01-23T19:22:07.465Z,17.13
2019-01-23T19:24:35.910Z,17.03
2019-01-23T19:27:04.632Z,16.47
2019-01-23T19:29:33.141Z,16.03
2019-01-23T19:32:01.630Z,17.30
2019-01-23T19:34:30.085Z,17.17
2019-01-23T19:36:58.548Z,16.43
2019-01-23T19:39:26.998Z,15.70
2019-01-23T19:41:55.456Z,15.83
2019-01-23T19:44:23.904Z,16.33
2019-01-23T19:46:52.425Z,16.57
2019-01-23T19:49:21.011Z,16.70
2019-01-23T19:51:49.623Z,16.73
2019-01-23T19:54:18.122Z,17.17
2019-01-23T19:56:46.672Z,16.53
2019-01-23T19:59:15.150Z,17.73
2019-01-23T20:01:43.609Z,16.30
2019-01-23T20:04:12.112Z,16.63
2019-01-23T20:06:40.631Z,16.93
2019-01-23T20:09:10.515Z,17.27
2019-01-23T20:11:38.989Z,18.10
2019-01-23T20:14:07.584Z,16.53
2019-01-23T20:16:36.053Z,19.03
2019-01-23T20:19:06.345Z,18.43
2019-01-23T20:21:34.835Z,18.27
2019-01-23T20:24:03.394Z,18.47
2019-01-23T20:26:31.888Z,18.27
2019-01-23T20:29:00.414Z,17.10
2019-01-23T20:31:28.882Z,22.27
2019-01-23T20:33:57.440Z,18.90
2019-01-23T20:36:25.895Z,19.23
2019-01-23T20:38:54.369Z,17.43
2019-01-23T20:41:22.816Z,17.50
2019-01-23T20:43:51.461Z,18.27
2019-01-23T20:46:20.094Z,18.83
2019-01-23T20:48:48.568Z,18.40
2019-01-23T20:51:17.074Z,18.70
2019-01-23T20:53:45.556Z,18.47
2019-01-23T20:56:13.996Z,18.73
2019-01-23T20:58:42.446Z,18.93
2019-01-23T21:01:10.894Z,18.73
2019-01-23T21:03:39.363Z,18.13
2019-01-23T21:06:07.814Z,19.03
2019-01-23T21:08:36.283Z,21.00
2019-01-23T21:11:05.276Z,18.30
2019-01-23T21:13:33.753Z,19.33
2019-01-23T21:16:02.254Z,18.60
2019-01-23T21:18:30.716Z,18.87
2019-01-23T21:20:59.190Z,17.80
2019-01-23T21:23:27.662Z,19.67
2019-01-23T21:25:56.354Z,19.00
2019-01-23T21:28:24.848Z,19.20
2019-01-23T21:30:53.295Z,18.90
2019-01-23T21:33:21.760Z,18.97
2019-01-23T21:35:50.278Z,18.57
2019-01-23T21:38:18.824Z,18.40
2019-01-23T21:40:47.264Z,17.90
2019-01-23T21:43:15.809Z,18.27
2019-01-23T21:45:44.281Z,14.93
2019-01-23T21:48:12.731Z,18.23
2019-01-23T21:50:41.196Z,16.57
2019-01-23T21:53:09.731Z,16.17
2019-01-23T21:55:38.186Z,18.33
2019-01-23T21:58:06.740Z,17.03
2019-01-23T22:00:38.272Z,17.70
2019-01-23T22:03:08.534Z,18.07
2019-01-23T22:05:36.968Z,17.87
2019-01-23T22:08:05.754Z,18.20
2019-01-23T22:10:34.213Z,17.27
2019-01-23T22:13:02.677Z,17.30
2019-01-23T22:15:32.765Z,17.70
2019-01-23T22:18:01.246Z,14.33
2019-01-23T22:20:29.711Z,17.13
2019-01-23T22:22:58.157Z,17.50
2019-01-23T22:25:26.645Z,16.80
2019-01-23T22:27:55.427Z,18.63
2019-01-23T22:30:26.351Z,17.07
2019-01-23T22:32:54.862Z,17.40
2019-01-23T22:35:23.416Z,17.03
2019-01-23T22:37:51.923Z,15.07
2019-01-23T22:40:20.735Z,16.63
2019-01-23T22:42:49.170Z,17.73
2019-01-23T22:45:19.311Z,18.07
2019-01-23T22:47:47.782Z,16.53
2019-01-23T22:50:21.087Z,17.47
2019-01-23T22:52:49.885Z,19.03
2019-01-23T22:55:18.401Z,17.43
2019-01-23T22:57:46.850Z,18.70
2019-01-23T23:00:21.099Z,18.60
2019-01-23T23:02:49.579Z,19.67
2019-01-23T23:05:18.034Z,16.37
2019-01-23T23:07:46.496Z,18.37
2019-01-23T23:10:15.794Z,19.27
2019-01-23T23:12:44.241Z,18.97
2019-01-23T23:15:13.136Z,17.90
2019-01-23T23:17:41.610Z,18.50
2019-01-23T23:20:12.172Z,19.00
2019-01-23T23:22:40.630Z,19.00
2019-01-23T23:25:10.438Z,18.97
2019-01-23T23:27:39.452Z,18.53
2019-01-23T23:30:11.217Z,18.33
2019-01-23T23:32:39.662Z,18.37
2019-01-23T23:35:08.398Z,19.40
2019-01-23T23:37:36.897Z,17.40
2019-01-23T23:40:08.658Z,18.80
2019-01-23T23:42:37.131Z,18.83
2019-01-23T23:45:09.230Z,18.67
2019-01-23T23:47:37.781Z,15.80
2019-01-23T23:50:09.342Z,14.20
2019-01-23T23:52:37.810Z,18.20
2019-01-23T23:55:08.114Z,17.97
2019-01-23T23:57:36.610Z,17.87
